createdAt,value
2018-06-14T00:00:22.770Z,97829.03
2018-06-14T00:02:50.325Z,97821.03
2018-06-14T00:05:17.903Z,97819.98
2018-06-14T00:07:45.433Z,97815.80
2018-06-14T00:10:13.027Z,97811.78
2018-06-14T00:12:40.986Z,97812.53
2018-06-14T00:15:09.575Z,97807.84
2018-06-14T00:17:37.130Z,97815.70
2018-06-14T00:20:05.136Z,97817.47
2018-06-14T00:22:32.737Z,97815.17
2018-06-14T00:25:00.309Z,97814.30
2018-06-14T00:27:27.823Z,97815.31
2018-06-14T00:29:55.875Z,97817.95
2018-06-14T00:32:23.582Z,97815.70
2018-06-14T00:34:51.106Z,97821.65
2018-06-14T00:37:18.634Z,97820.67
2018-06-14T00:39:46.181Z,97827.55
2018-06-14T00:42:13.717Z,97828.59
2018-06-14T00:44:41.342Z,97832.49
2018-06-14T00:47:08.898Z,97829.08
2018-06-14T00:49:36.414Z,97829.07
2018-06-14T00:52:03.999Z,97831.95
2018-06-14T00:54:31.551Z,97830.56
2018-06-14T00:57:10.402Z,97830.21
2018-06-14T00:59:37.950Z,97824.13
2018-06-14T01:02:05.588Z,97824.13
2018-06-14T01:04:33.134Z,97825.66
2018-06-14T01:07:00.714Z,97818.66
2018-06-14T01:09:28.226Z,97811.58
2018-06-14T01:11:55.771Z,97810.30
2018-06-14T01:14:23.318Z,97810.30
2018-06-14T01:16:50.835Z,97803.02
2018-06-14T01:19:18.382Z,97806.33
2018-06-14T01:21:45.953Z,97802.77
2018-06-14T01:24:13.519Z,97802.53
2018-06-14T01:26:41.074Z,97801.00
2018-06-14T01:29:08.645Z,97803.66
2018-06-14T01:31:36.170Z,97805.02
2018-06-14T01:34:03.682Z,97795.00
2018-06-14T01:36:31.233Z,97795.51
2018-06-14T01:38:58.740Z,97799.13
2018-06-14T01:41:26.248Z,97789.31
2018-06-14T01:43:53.838Z,97790.20
2018-06-14T01:46:21.370Z,97800.42
2018-06-14T01:48:48.899Z,97798.17
2018-06-14T01:51:16.439Z,97797.42
2018-06-14T01:53:43.970Z,97799.27
2018-06-14T01:56:11.522Z,97791.28
2018-06-14T01:58:39.077Z,97794.36
2018-06-14T02:01:06.577Z,97788.15
2018-06-14T02:03:34.090Z,97795.25
2018-06-14T02:06:01.650Z,97801.59
2018-06-14T02:08:29.226Z,97790.70
2018-06-14T02:10:56.768Z,97797.44
2018-06-14T02:13:24.301Z,97798.34
2018-06-14T02:15:51.834Z,97793.27
2018-06-14T02:18:19.477Z,97797.59
2018-06-14T02:20:47.023Z,97795.44
2018-06-14T02:23:14.521Z,97796.06
2018-06-14T02:25:42.042Z,97793.88
2018-06-14T02:28:09.622Z,97798.28
2018-06-14T02:30:37.141Z,97794.10
2018-06-14T02:33:04.870Z,97804.98
2018-06-14T02:35:32.423Z,97805.63
2018-06-14T02:38:00.014Z,97804.47
2018-06-14T02:40:27.556Z,97809.31
2018-06-14T02:42:55.178Z,97817.16
2018-06-14T02:45:22.709Z,97822.48
2018-06-14T02:47:50.228Z,97820.31
2018-06-14T02:50:17.766Z,97826.66
2018-06-14T02:52:45.295Z,97830.86
2018-06-14T02:55:12.833Z,97830.91
2018-06-14T02:57:40.417Z,97831.40
2018-06-14T03:00:08.016Z,97828.55
2018-06-14T03:02:35.554Z,97835.27
2018-06-14T03:05:03.267Z,97836.45
2018-06-14T03:07:34.912Z,97842.17
2018-06-14T03:10:03.525Z,97849.26
2018-06-14T03:12:31.254Z,97842.84
2018-06-14T03:14:58.785Z,97845.19
2018-06-14T03:17:26.353Z,97846.72
2018-06-14T03:19:53.926Z,97850.77
2018-06-14T03:22:22.795Z,97847.46
2018-06-14T03:24:50.456Z,97855.60
2018-06-14T03:27:17.977Z,97850.17
2018-06-14T03:29:45.821Z,97849.81
2018-06-14T03:32:13.641Z,97849.58
2018-06-14T03:34:41.177Z,97852.64
2018-06-14T03:37:09.494Z,97851.74
2018-06-14T03:39:37.103Z,97848.42
2018-06-14T03:42:05.642Z,97854.73
2018-06-14T03:44:34.138Z,97851.16
2018-06-14T03:47:02.119Z,97856.91
2018-06-14T03:49:29.622Z,97856.00
2018-06-14T03:51:57.144Z,97862.17
2018-06-14T03:54:24.705Z,97860.03
2018-06-14T03:56:52.240Z,97868.78
2018-06-14T03:59:19.750Z,97863.70
2018-06-14T04:01:47.302Z,97862.83
2018-06-14T04:04:14.811Z,97867.37
2018-06-14T04:06:42.323Z,97869.64
2018-06-14T04:09:11.094Z,97877.89
2018-06-14T04:11:38.751Z,97884.10
2018-06-14T04:14:06.558Z,97887.19
2018-06-14T04:16:34.550Z,97891.91
2018-06-14T04:19:02.070Z,97897.17
2018-06-14T04:21:29.594Z,97902.48
2018-06-14T04:23:57.155Z,97895.72
2018-06-14T04:26:24.778Z,97902.67
2018-06-14T04:28:52.410Z,97907.97
2018-06-14T04:31:19.986Z,97906.36
2018-06-14T04:33:47.515Z,97905.50
2018-06-14T04:36:15.100Z,97906.78
2018-06-14T04:38:42.886Z,97901.79
2018-06-14T04:41:10.426Z,97905.07
2018-06-14T04:43:37.937Z,97906.60
2018-06-14T04:46:05.762Z,97904.60
2018-06-14T04:48:33.290Z,97906.38
2018-06-14T04:51:00.800Z,97904.37
2018-06-14T04:53:28.377Z,97905.25
2018-06-14T04:55:56.002Z,97912.97
2018-06-14T04:58:23.534Z,97912.36
2018-06-14T05:00:51.123Z,97910.86
2018-06-14T05:03:18.654Z,97913.80
2018-06-14T05:05:46.243Z,97909.77
2018-06-14T05:08:18.605Z,97907.70
2018-06-14T05:10:46.120Z,97909.87
2018-06-14T05:13:13.672Z,97905.05
2018-06-14T05:15:41.369Z,97908.08
2018-06-14T05:18:08.941Z,97903.42
2018-06-14T05:20:36.462Z,97901.55
2018-06-14T05:23:04.030Z,97900.45
2018-06-14T05:25:31.570Z,97901.09
2018-06-14T05:27:59.079Z,97897.94
2018-06-14T05:30:26.629Z,97907.31
2018-06-14T05:32:54.143Z,97902.77
2018-06-14T05:35:21.680Z,97901.88
2018-06-14T05:37:49.493Z,97907.20
2018-06-14T05:40:17.010Z,97901.89
2018-06-14T05:42:44.534Z,97907.61
2018-06-14T05:45:12.086Z,97908.54
2018-06-14T05:47:39.641Z,97911.34
2018-06-14T05:50:07.175Z,97912.47
2018-06-14T05:52:34.750Z,97910.71
2018-06-14T05:55:02.310Z,97914.01
2018-06-14T05:57:29.846Z,97908.28
2018-06-14T05:59:57.397Z,97911.97
2018-06-14T06:02:24.935Z,97908.55
2018-06-14T06:04:52.534Z,97907.02
2018-06-14T06:07:20.086Z,97907.91
2018-06-14T06:09:47.614Z,97908.28
2018-06-14T06:12:15.207Z,97902.05
2018-06-14T06:14:42.767Z,97898.37
2018-06-14T06:17:10.342Z,97900.66
2018-06-14T06:19:37.878Z,97902.95
2018-06-14T06:22:05.488Z,97901.83
2018-06-14T06:24:33.011Z,97901.06
2018-06-14T06:27:00.926Z,97893.45
2018-06-14T06:29:28.501Z,97898.91
2018-06-14T06:31:56.014Z,97901.76
2018-06-14T06:34:23.522Z,97907.19
2018-06-14T06:36:51.098Z,97907.19
2018-06-14T06:39:18.661Z,97904.67
2018-06-14T06:41:46.188Z,97906.34
2018-06-14T06:44:13.756Z,97903.42
2018-06-14T06:46:41.301Z,97898.64
2018-06-14T06:49:08.818Z,97898.41
2018-06-14T06:51:36.370Z,97901.44
2018-06-14T06:54:03.897Z,97898.50
2018-06-14T06:56:31.422Z,97898.90
2018-06-14T06:58:59.004Z,97900.03
2018-06-14T07:01:26.536Z,97902.19
2018-06-14T07:03:54.059Z,97892.53
2018-06-14T07:06:21.636Z,97896.73
2018-06-14T07:08:49.541Z,97899.64
2018-06-14T07:11:17.094Z,97899.52
2018-06-14T07:13:44.649Z,97899.51
2018-06-14T07:16:12.211Z,97894.95
2018-06-14T07:18:39.761Z,97898.61
2018-06-14T07:21:07.335Z,97900.89
2018-06-14T07:23:34.874Z,97903.31
2018-06-14T07:26:02.394Z,97904.70
2018-06-14T07:28:29.960Z,97909.50
2018-06-14T07:30:57.514Z,97902.41
2018-06-14T07:33:25.050Z,97904.41
2018-06-14T07:35:52.595Z,97910.00
2018-06-14T07:38:20.118Z,97911.95
2018-06-14T07:40:47.666Z,97918.77
2018-06-14T07:43:15.231Z,97917.06
2018-06-14T07:45:42.749Z,97920.58
2018-06-14T07:48:10.256Z,97912.05
2018-06-14T07:50:37.809Z,97907.46
2018-06-14T07:53:05.325Z,97907.07
2018-06-14T07:55:32.865Z,97908.80
2018-06-14T07:58:00.410Z,97914.40
2018-06-14T08:00:27.926Z,97915.75
2018-06-14T08:02:55.450Z,97916.05
2018-06-14T08:05:23.031Z,97913.63
2018-06-14T08:07:50.571Z,97913.83
2018-06-14T08:10:18.091Z,97917.66
2018-06-14T08:12:45.654Z,97920.97
2018-06-14T08:15:13.211Z,97912.03
2018-06-14T08:17:40.742Z,97913.11
2018-06-14T08:20:08.308Z,97909.27
2018-06-14T08:22:35.830Z,97911.00
2018-06-14T08:25:03.386Z,97904.59
2018-06-14T08:27:30.951Z,97901.22
2018-06-14T08:29:58.470Z,97898.94
2018-06-14T08:32:26.007Z,97895.75
2018-06-14T08:34:53.546Z,97902.36
2018-06-14T08:37:25.637Z,97905.14
2018-06-14T08:39:53.179Z,97898.58
2018-06-14T08:42:20.726Z,97901.45
2018-06-14T08:44:48.280Z,97901.88
2018-06-14T08:47:15.831Z,97897.08
2018-06-14T08:49:43.345Z,97905.91
2018-06-14T08:52:10.874Z,97903.31
2018-06-14T08:54:38.419Z,97908.07
2018-06-14T08:57:06.015Z,97902.42
2018-06-14T08:59:33.522Z,97907.95
2018-06-14T09:02:01.075Z,97913.61
2018-06-14T09:04:28.638Z,97916.48
2018-06-14T09:06:56.182Z,97924.86
2018-06-14T09:09:23.749Z,97923.71
2018-06-14T09:11:51.314Z,97918.19
2018-06-14T09:14:18.906Z,97915.34
2018-06-14T09:16:46.426Z,97919.33
2018-06-14T09:19:13.958Z,97915.81
2018-06-14T09:21:41.492Z,97908.76
2018-06-14T09:24:09.050Z,97913.30
2018-06-14T09:29:10.938Z,97913.19
2018-06-14T09:31:38.570Z,97908.98
2018-06-14T09:34:06.139Z,97910.31
2018-06-14T09:36:34.282Z,97908.20
2018-06-14T09:39:01.898Z,97907.65
2018-06-14T09:41:29.453Z,97906.33
2018-06-14T09:43:57.010Z,97907.36
2018-06-14T09:46:24.642Z,97909.44
2018-06-14T09:48:57.617Z,97907.56
2018-06-14T09:51:25.183Z,97906.54
2018-06-14T09:53:52.734Z,97903.77
2018-06-14T09:56:20.302Z,97900.75
2018-06-14T09:58:47.811Z,97908.17
2018-06-14T10:01:15.360Z,97896.95
2018-06-14T10:03:42.935Z,97898.03
2018-06-14T10:06:10.448Z,97896.97
2018-06-14T10:08:37.966Z,97898.62
2018-06-14T10:11:05.582Z,97893.59
2018-06-14T10:13:33.094Z,97896.30
2018-06-14T10:16:00.781Z,97891.83
2018-06-14T10:18:28.326Z,97891.88
2018-06-14T10:20:55.903Z,97893.70
2018-06-14T10:23:23.413Z,97895.18
2018-06-14T10:25:51.127Z,97889.16
2018-06-14T10:28:18.666Z,97895.91
2018-06-14T10:30:46.194Z,97886.25
2018-06-14T10:33:13.818Z,97890.11
2018-06-14T10:35:41.326Z,97891.98
2018-06-14T10:38:09.077Z,97891.05
2018-06-14T10:40:36.647Z,97885.72
2018-06-14T10:43:05.390Z,97885.27
2018-06-14T10:45:33.562Z,97885.73
2018-06-14T10:48:01.451Z,97884.09
2018-06-14T10:50:28.962Z,97879.84
2018-06-14T10:52:56.504Z,97872.92
2018-06-14T10:55:24.085Z,97861.03
2018-06-14T10:57:51.658Z,97867.09
2018-06-14T11:00:19.291Z,97869.08
2018-06-14T11:02:46.845Z,97860.97
2018-06-14T11:05:14.377Z,97856.38
2018-06-14T11:07:41.898Z,97859.58
2018-06-14T11:10:09.431Z,97861.84
2018-06-14T11:12:36.954Z,97856.04
2018-06-14T11:15:04.538Z,97852.05
2018-06-14T11:17:32.078Z,97855.28
2018-06-14T11:19:59.594Z,97860.41
2018-06-14T11:22:27.086Z,97854.24
2018-06-14T11:24:59.335Z,97850.42
2018-06-14T11:27:26.881Z,97856.85
2018-06-14T11:29:54.442Z,97851.27
2018-06-14T11:32:22.009Z,97850.27
2018-06-14T11:34:49.575Z,97845.73
2018-06-14T11:37:17.166Z,97847.42
2018-06-14T11:39:44.720Z,97852.97
2018-06-14T11:42:12.250Z,97841.03
2018-06-14T11:44:39.786Z,97842.50
2018-06-14T11:47:07.334Z,97829.77
2018-06-14T11:49:34.841Z,97830.87
2018-06-14T11:52:02.346Z,97827.86
2018-06-14T11:54:30.143Z,97831.03
2018-06-14T11:56:57.679Z,97824.59
2018-06-14T11:59:25.223Z,97830.48
2018-06-14T12:01:52.830Z,97827.76
2018-06-14T12:04:20.354Z,97825.68
2018-06-14T12:06:47.869Z,97825.32
2018-06-14T12:09:15.474Z,97823.62
2018-06-14T12:11:43.021Z,97824.88
2018-06-14T12:14:10.555Z,97818.95
2018-06-14T12:16:38.094Z,97814.55
2018-06-14T12:19:05.602Z,97814.44
2018-06-14T12:21:33.107Z,97808.37
2018-06-14T12:24:00.679Z,97815.99
2018-06-14T12:26:28.383Z,97816.62
2018-06-14T12:28:55.939Z,97811.50
2018-06-14T12:31:23.507Z,97812.70
2018-06-14T12:33:51.014Z,97808.34
2018-06-14T12:36:18.530Z,97803.14
2018-06-14T12:38:46.088Z,97796.33
2018-06-14T12:41:13.590Z,97796.31
2018-06-14T12:43:41.110Z,97794.38
2018-06-14T12:46:08.667Z,97794.00
2018-06-14T12:48:36.185Z,97792.13
2018-06-14T12:51:03.710Z,97792.41
2018-06-14T12:53:31.263Z,97798.70
2018-06-14T12:55:58.790Z,97786.23
2018-06-14T12:58:26.358Z,97783.71
2018-06-14T13:00:53.913Z,97781.66
2018-06-14T13:03:21.431Z,97785.27
2018-06-14T13:05:48.954Z,97780.98
2018-06-14T13:08:16.537Z,97775.24
2018-06-14T13:10:44.062Z,97775.66
2018-06-14T13:13:11.599Z,97777.15
2018-06-14T13:15:39.147Z,97782.84
2018-06-14T13:18:06.699Z,97784.25
2018-06-14T13:20:34.218Z,97783.23
2018-06-14T13:23:01.794Z,97775.16
2018-06-14T13:25:29.401Z,97763.55
2018-06-14T13:27:56.887Z,97764.80
2018-06-14T13:30:24.466Z,97769.75
2018-06-14T13:32:52.414Z,97759.89
2018-06-14T13:35:19.934Z,97764.05
2018-06-14T13:37:47.481Z,97765.33
2018-06-14T13:40:14.997Z,97759.27
2018-06-14T13:42:42.514Z,97751.77
2018-06-14T13:45:10.078Z,97748.70
2018-06-14T13:47:38.246Z,97751.36
2018-06-14T13:50:05.779Z,97742.02
2018-06-14T13:52:33.727Z,97744.53
2018-06-14T13:55:01.262Z,97740.97
2018-06-14T13:57:28.799Z,97741.99
2018-06-14T13:59:56.425Z,97735.52
2018-06-14T14:02:23.906Z,97735.91
2018-06-14T14:04:51.406Z,97733.74
2018-06-14T14:07:24.630Z,97733.23
2018-06-14T14:09:52.149Z,97731.91
2018-06-14T14:12:19.686Z,97732.50
2018-06-14T14:14:47.247Z,97733.17
2018-06-14T14:17:14.783Z,97731.75
2018-06-14T14:19:42.310Z,97728.70
2018-06-14T14:22:09.878Z,97723.97
2018-06-14T14:24:37.403Z,97732.61
2018-06-14T14:27:04.954Z,97726.59
2018-06-14T14:29:32.481Z,97717.42
2018-06-14T14:32:00.024Z,97713.14
2018-06-14T14:34:27.558Z,97711.20
2018-06-14T14:36:55.103Z,97714.63
2018-06-14T14:39:22.659Z,97712.41
2018-06-14T14:41:50.186Z,97721.47
2018-06-14T14:44:17.749Z,97707.03
2018-06-14T14:46:45.286Z,97703.33
2018-06-14T14:49:12.817Z,97712.09
2018-06-14T14:51:40.392Z,97699.31
2018-06-14T14:54:07.927Z,97692.10
2018-06-14T14:56:35.475Z,97692.80
2018-06-14T14:59:03.094Z,97696.73
2018-06-14T15:01:30.616Z,97694.89
2018-06-14T15:03:58.154Z,97694.75
2018-06-14T15:06:25.731Z,97690.11
2018-06-14T15:08:53.253Z,97687.83
2018-06-14T15:11:21.502Z,97684.98
2018-06-14T15:13:49.098Z,97687.95
2018-06-14T15:16:16.628Z,97689.86
2018-06-14T15:18:44.169Z,97687.16
2018-06-14T15:21:11.738Z,97683.27
2018-06-14T15:23:39.264Z,97689.98
2018-06-14T15:26:06.790Z,97688.37
2018-06-14T15:28:34.363Z,97688.28
2018-06-14T15:31:01.920Z,97690.75
2018-06-14T15:33:29.458Z,97684.81
2018-06-14T15:35:57.120Z,97679.55
2018-06-14T15:38:24.679Z,97679.64
2018-06-14T15:40:52.198Z,97676.46
2018-06-14T15:43:19.755Z,97671.17
2018-06-14T15:45:47.311Z,97681.50
2018-06-14T15:48:14.895Z,97683.53
2018-06-14T15:50:42.495Z,97682.75
2018-06-14T15:53:10.038Z,97681.33
2018-06-14T15:56:00.511Z,97668.87
2018-06-14T15:58:28.555Z,97672.56
2018-06-14T16:00:56.313Z,97668.33
2018-06-14T16:03:24.666Z,97664.69
2018-06-14T16:05:52.177Z,97665.22
2018-06-14T16:08:19.749Z,97656.39
2018-06-14T16:10:47.338Z,97660.66
2018-06-14T16:13:14.890Z,97659.38
2018-06-14T16:15:42.414Z,97657.97
2018-06-14T16:18:09.971Z,97658.78
2018-06-14T16:20:37.494Z,97664.19
2018-06-14T16:23:05.189Z,97664.30
2018-06-14T16:25:32.747Z,97664.52
2018-06-14T16:28:00.299Z,97661.51
2018-06-14T16:30:27.811Z,97660.70
2018-06-14T16:32:55.359Z,97664.15
2018-06-14T16:35:22.882Z,97658.59
2018-06-14T16:37:50.501Z,97661.50
2018-06-14T16:40:18.168Z,97664.48
2018-06-14T16:42:45.738Z,97660.06
2018-06-14T16:45:13.254Z,97661.86
2018-06-14T16:47:41.270Z,97659.95
2018-06-14T16:50:08.830Z,97659.06
2018-06-14T16:52:36.401Z,97661.49
2018-06-14T16:55:03.992Z,97662.47
2018-06-14T16:57:31.529Z,97657.78
2018-06-14T16:59:59.057Z,97656.88
2018-06-14T17:02:26.713Z,97646.17
2018-06-14T17:04:54.285Z,97652.29
2018-06-14T17:07:21.819Z,97647.35
2018-06-14T17:09:49.364Z,97659.00
2018-06-14T17:12:16.899Z,97653.61
2018-06-14T17:14:44.422Z,97655.36
2018-06-14T17:17:11.986Z,97653.83
2018-06-14T17:19:39.503Z,97654.25
2018-06-14T17:22:07.090Z,97649.82
2018-06-14T17:24:34.669Z,97647.44
2018-06-14T17:27:02.202Z,97648.96
2018-06-14T17:29:29.722Z,97648.83
2018-06-14T17:31:57.270Z,97654.06
2018-06-14T17:34:24.789Z,97656.74
2018-06-14T17:36:52.325Z,97650.59
2018-06-14T17:39:19.862Z,97649.62
2018-06-14T17:41:48.622Z,97659.13
2018-06-14T17:44:16.127Z,97649.30
2018-06-14T17:46:43.706Z,97650.70
2018-06-14T17:49:11.225Z,97651.99
2018-06-14T17:51:38.759Z,97661.52
2018-06-14T17:54:06.314Z,97667.13
2018-06-14T17:56:33.856Z,97664.54
2018-06-14T17:59:01.408Z,97664.99
2018-06-14T18:01:29.017Z,97667.80
2018-06-14T18:03:56.517Z,97670.81
2018-06-14T18:06:24.079Z,97666.48
2018-06-14T18:08:51.618Z,97668.45
2018-06-14T18:11:19.154Z,97666.82
2018-06-14T18:13:46.682Z,97666.41
2018-06-14T18:16:14.224Z,97673.66
2018-06-14T18:18:41.778Z,97676.03
2018-06-14T18:21:09.286Z,97671.48
2018-06-14T18:23:36.858Z,97682.63
2018-06-14T18:26:04.386Z,97674.51
2018-06-14T18:28:31.904Z,97678.28
2018-06-14T18:30:59.485Z,97682.41
2018-06-14T18:33:27.019Z,97680.78
2018-06-14T18:35:54.538Z,97688.02
2018-06-14T18:38:22.087Z,97687.47
2018-06-14T18:40:49.595Z,97686.93
2018-06-14T18:43:17.122Z,97692.03
2018-06-14T18:45:44.679Z,97690.95
2018-06-14T18:48:12.229Z,97690.64
2018-06-14T18:50:39.771Z,97692.69
2018-06-14T18:53:07.326Z,97702.41
2018-06-14T18:55:35.405Z,97695.50
2018-06-14T18:58:07.049Z,97702.83
2018-06-14T19:00:38.714Z,97704.67
2018-06-14T19:03:07.102Z,97709.84
2018-06-14T19:05:34.756Z,97709.81
2018-06-14T19:08:02.298Z,97713.98
2018-06-14T19:10:29.838Z,97714.92
2018-06-14T19:12:57.370Z,97715.11
2018-06-14T19:15:24.903Z,97717.45
2018-06-14T19:17:52.459Z,97731.34
2018-06-14T19:20:19.978Z,97734.76
2018-06-14T19:22:47.503Z,97735.48
2018-06-14T19:25:15.083Z,97736.09
2018-06-14T19:27:42.606Z,97742.21
2018-06-14T19:30:10.166Z,97745.62
2018-06-14T19:32:37.714Z,97746.50
2018-06-14T19:35:05.434Z,97751.17
2018-06-14T19:37:32.967Z,97757.33
2018-06-14T19:40:00.618Z,97756.54
2018-06-14T19:42:28.141Z,97764.83
2018-06-14T19:44:55.667Z,97766.75
2018-06-14T19:47:23.222Z,97764.59
2018-06-14T19:49:50.744Z,97767.87
2018-06-14T19:52:18.266Z,97763.67
2018-06-14T19:54:45.882Z,97769.91
2018-06-14T19:57:13.440Z,97776.55
2018-06-14T19:59:40.950Z,97782.28
2018-06-14T20:02:08.546Z,97779.14
2018-06-14T20:04:37.238Z,97780.17
2018-06-14T20:07:04.806Z,97779.92
2018-06-14T20:09:32.351Z,97776.72
2018-06-14T20:11:59.866Z,97780.59
2018-06-14T20:14:27.421Z,97781.11
2018-06-14T20:16:55.019Z,97783.83
2018-06-14T20:19:22.546Z,97791.86
2018-06-14T20:21:50.071Z,97790.63
2018-06-14T20:24:17.620Z,97791.81
2018-06-14T20:26:45.147Z,97785.84
2018-06-14T20:29:12.670Z,97788.05
2018-06-14T20:31:40.300Z,97784.87
2018-06-14T20:34:07.990Z,97784.52
2018-06-14T20:36:35.573Z,97776.03
2018-06-14T20:39:03.898Z,97774.80
2018-06-14T20:41:31.437Z,97776.59
2018-06-14T20:43:58.982Z,97783.50
2018-06-14T20:46:26.566Z,97788.63
2018-06-14T20:48:54.230Z,97792.34
2018-06-14T20:51:21.754Z,97790.44
2018-06-14T20:53:49.321Z,97790.73
2018-06-14T20:56:16.845Z,97794.58
2018-06-14T20:58:44.365Z,97793.56
2018-06-14T21:01:11.939Z,97795.88
2018-06-14T21:03:40.306Z,97792.57
2018-06-14T21:06:08.536Z,97790.82
2018-06-14T21:08:36.098Z,97793.90
2018-06-14T21:11:03.700Z,97798.45
2018-06-14T21:13:31.478Z,97793.00
2018-06-14T21:15:59.074Z,97796.31
2018-06-14T21:18:26.594Z,97794.56
2018-06-14T21:20:54.116Z,97790.48
2018-06-14T21:23:21.654Z,97793.91
2018-06-14T21:25:49.179Z,97796.62
2018-06-14T21:28:16.926Z,97794.58
2018-06-14T21:30:44.511Z,97794.86
2018-06-14T21:33:12.048Z,97790.94
2018-06-14T21:35:39.637Z,97791.83
2018-06-14T21:38:07.234Z,97792.99
2018-06-14T21:40:34.847Z,97789.81
2018-06-14T21:43:02.429Z,97786.66
2018-06-14T21:45:30.297Z,97781.44
2018-06-14T21:47:57.899Z,97785.28
2018-06-14T21:50:25.529Z,97785.66
2018-06-14T21:52:53.100Z,97794.94
2018-06-14T21:55:20.610Z,97788.58
2018-06-14T21:57:48.230Z,97791.11
2018-06-14T22:00:15.794Z,97790.88
2018-06-14T22:02:48.695Z,97792.91
2018-06-14T22:05:16.975Z,97800.54
2018-06-14T22:07:44.519Z,97801.55
2018-06-14T22:10:12.070Z,97792.80
2018-06-14T22:12:39.660Z,97795.34
2018-06-14T22:15:07.231Z,97789.62
2018-06-14T22:17:34.762Z,97795.98
2018-06-14T22:20:02.439Z,97784.31
2018-06-14T22:22:30.055Z,97792.06
2018-06-14T22:24:57.574Z,97790.54
2018-06-14T22:27:25.178Z,97792.83
2018-06-14T22:29:53.038Z,97792.20
2018-06-14T22:32:20.566Z,97791.53
2018-06-14T22:34:59.327Z,97791.29
2018-06-14T22:37:26.906Z,97794.23
2018-06-14T22:39:54.439Z,97790.14
2018-06-14T22:42:22.018Z,97790.27
2018-06-14T22:44:49.551Z,97785.95
2018-06-14T22:47:17.070Z,97786.36
2018-06-14T22:49:44.786Z,97789.02
2018-06-14T22:53:15.786Z,97789.80
2018-06-14T22:55:43.349Z,97786.24
2018-06-14T22:58:10.894Z,97784.22
2018-06-14T23:01:45.326Z,97786.62
2018-06-14T23:04:15.083Z,97786.09
2018-06-14T23:06:42.631Z,97788.00
2018-06-14T23:10:25.182Z,97790.45
2018-06-14T23:12:52.720Z,97792.74
2018-06-14T23:15:20.444Z,97791.34
2018-06-14T23:17:48.631Z,97793.08
2018-06-14T23:20:17.190Z,97788.00
2018-06-14T23:22:45.909Z,97784.70
2018-06-14T23:25:13.466Z,97786.27
2018-06-14T23:27:41.229Z,97793.72
2018-06-14T23:30:08.822Z,97786.59
2018-06-14T23:32:36.396Z,97796.25
2018-06-14T23:35:03.964Z,97782.81
2018-06-14T23:37:31.486Z,97785.70
2018-06-14T23:39:59.029Z,97789.89
2018-06-14T23:42:26.553Z,97792.95
2018-06-14T23:44:55.553Z,97793.38
2018-06-14T23:47:23.154Z,97804.53
2018-06-14T23:49:50.733Z,97797.02
2018-06-14T23:52:18.299Z,97797.52
2018-06-14T23:54:46.269Z,97798.81
2018-06-14T23:57:13.818Z,97802.60
2018-06-14T23:59:41.472Z,97795.25
